createdAt,value
2018-06-05T00:01:20.705Z,18.10
2018-06-05T00:03:48.656Z,18.10
2018-06-05T00:06:16.613Z,17.90
2018-06-05T00:08:44.580Z,17.80
2018-06-05T00:11:12.576Z,17.80
2018-06-05T00:13:40.599Z,17.80
2018-06-05T00:16:08.551Z,17.90
2018-06-05T00:18:36.556Z,17.80
2018-06-05T00:21:04.530Z,17.80
2018-06-05T00:23:32.488Z,17.90
2018-06-05T00:26:00.575Z,17.80
2018-06-05T00:28:28.648Z,17.80
2018-06-05T00:30:57.481Z,17.80
2018-06-05T00:33:25.495Z,17.80
2018-06-05T00:35:53.472Z,17.80
2018-06-05T00:38:21.537Z,17.70
2018-06-05T00:40:49.486Z,17.50
2018-06-05T00:43:17.591Z,17.60
2018-06-05T00:45:50.069Z,17.50
2018-06-05T00:48:18.112Z,17.50
2018-06-05T00:50:46.080Z,17.50
2018-06-05T00:53:14.041Z,17.50
2018-06-05T00:55:42.045Z,17.50
2018-06-05T00:58:09.988Z,17.40
2018-06-05T01:00:37.951Z,17.50
2018-06-05T01:03:05.923Z,17.50
2018-06-05T01:05:33.907Z,17.50
2018-06-05T01:08:01.858Z,17.40
2018-06-05T01:12:57.973Z,17.40
2018-06-05T01:15:26.035Z,17.30
2018-06-05T01:17:54.042Z,17.30
2018-06-05T01:20:22.034Z,17.30
2018-06-05T01:22:49.991Z,17.30
2018-06-05T01:25:17.969Z,17.30
2018-06-05T01:27:45.938Z,17.40
2018-06-05T01:30:13.936Z,17.40
2018-06-05T01:32:41.932Z,17.50
2018-06-05T01:35:09.988Z,17.40
2018-06-05T01:37:38.072Z,17.30
2018-06-05T01:40:06.075Z,17.40
2018-06-05T01:42:34.040Z,17.30
2018-06-05T01:45:02.034Z,17.30
2018-06-05T01:47:30.071Z,17.20
2018-06-05T01:49:58.879Z,17.20
2018-06-05T01:52:26.889Z,17.20
2018-06-05T01:54:54.856Z,17.10
2018-06-05T01:57:22.852Z,17.20
2018-06-05T01:59:50.856Z,17.10
2018-06-05T02:02:18.832Z,17.20
2018-06-05T02:04:46.813Z,17.20
2018-06-05T02:07:14.761Z,17.20
2018-06-05T02:09:42.840Z,17.20
2018-06-05T02:12:10.936Z,17.20
2018-06-05T02:14:38.919Z,17.20
2018-06-05T02:17:06.987Z,17.00
2018-06-05T02:19:35.040Z,17.00
2018-06-05T02:22:03.070Z,17.00
2018-06-05T02:24:31.153Z,17.10
2018-06-05T02:26:59.644Z,17.00
2018-06-05T02:29:27.601Z,17.00
2018-06-05T02:31:55.622Z,17.00
2018-06-05T02:34:23.585Z,17.00
2018-06-05T02:36:51.676Z,17.00
2018-06-05T02:39:19.670Z,17.10
2018-06-05T02:41:47.656Z,17.10
2018-06-05T02:44:15.639Z,17.10
2018-06-05T02:46:43.607Z,17.10
2018-06-05T02:49:11.596Z,17.20
2018-06-05T02:51:39.580Z,17.30
2018-06-05T02:54:07.549Z,17.30
2018-06-05T02:56:35.537Z,17.30
2018-06-05T02:59:03.525Z,17.30
2018-06-05T03:01:31.495Z,17.10
2018-06-05T03:04:00.380Z,17.00
2018-06-05T03:06:28.357Z,17.10
2018-06-05T03:08:56.326Z,17.10
2018-06-05T03:11:24.325Z,17.00
2018-06-05T03:13:52.303Z,17.00
2018-06-05T03:16:20.286Z,17.00
2018-06-05T03:18:48.234Z,17.00
2018-06-05T03:21:16.207Z,16.90
2018-06-05T03:23:44.217Z,17.00
2018-06-05T03:26:12.144Z,17.00
2018-06-05T03:28:40.192Z,17.00
2018-06-05T03:31:08.155Z,17.00
2018-06-05T03:33:36.145Z,16.80
2018-06-05T03:36:04.259Z,16.80
2018-06-05T03:38:32.324Z,16.80
2018-06-05T03:41:01.188Z,16.70
2018-06-05T03:43:29.195Z,16.70
2018-06-05T03:48:24.969Z,16.80
2018-06-05T03:50:53.064Z,16.80
2018-06-05T03:53:21.054Z,16.80
2018-06-05T03:55:49.019Z,16.70
2018-06-05T03:58:16.975Z,16.70
2018-06-05T04:00:44.964Z,16.70
2018-06-05T04:03:12.912Z,16.80
2018-06-05T04:05:40.876Z,16.90
2018-06-05T04:08:08.845Z,16.90
2018-06-05T04:10:36.808Z,17.00
2018-06-05T04:13:04.812Z,16.90
2018-06-05T04:15:32.828Z,17.00
2018-06-05T04:20:29.463Z,17.20
2018-06-05T04:22:57.513Z,17.30
2018-06-05T04:25:25.488Z,17.30
2018-06-05T04:27:53.620Z,17.30
2018-06-05T04:30:21.568Z,17.30
2018-06-05T04:32:49.544Z,17.40
2018-06-05T04:35:17.635Z,17.40
2018-06-05T04:37:45.644Z,17.40
2018-06-05T04:40:13.909Z,17.40
2018-06-05T04:42:41.922Z,17.40
2018-06-05T04:45:09.873Z,17.30
2018-06-05T04:47:37.819Z,17.40
2018-06-05T04:50:05.788Z,17.40
2018-06-05T04:52:33.784Z,17.50
2018-06-05T04:55:02.668Z,17.50
2018-06-05T04:57:30.656Z,17.50
2018-06-05T04:59:58.683Z,17.50
2018-06-05T05:02:26.678Z,17.60
2018-06-05T05:04:54.643Z,17.50
2018-06-05T05:07:22.639Z,17.60
2018-06-05T05:09:50.610Z,17.60
2018-06-05T05:12:18.570Z,17.60
2018-06-05T05:14:46.528Z,17.60
2018-06-05T05:17:14.544Z,17.60
2018-06-05T05:19:42.657Z,17.60
2018-06-05T05:22:10.627Z,17.60
2018-06-05T05:24:38.637Z,17.60
2018-06-05T05:27:06.675Z,17.50
2018-06-05T05:29:34.639Z,17.40
2018-06-05T05:32:03.230Z,17.40
2018-06-05T05:34:31.192Z,17.50
2018-06-05T05:36:59.182Z,17.50
2018-06-05T05:39:27.175Z,17.60
2018-06-05T05:41:55.218Z,17.60
2018-06-05T05:44:23.395Z,17.60
2018-06-05T05:46:51.440Z,17.60
2018-06-05T05:51:47.285Z,17.60
2018-06-05T05:56:43.111Z,17.60
2018-06-05T05:59:11.152Z,17.60
2018-06-05T06:01:39.122Z,17.60
2018-06-05T06:04:07.099Z,17.70
2018-06-05T06:09:06.481Z,17.70
2018-06-05T06:11:34.686Z,17.70
2018-06-05T06:14:03.124Z,17.60
2018-06-05T06:16:31.320Z,17.70
2018-06-05T06:18:59.360Z,17.70
2018-06-05T06:21:27.322Z,17.70
2018-06-05T06:23:55.308Z,17.80
2018-06-05T06:26:23.364Z,17.80
2018-06-05T06:28:51.457Z,17.80
2018-06-05T06:31:19.881Z,17.80
2018-06-05T06:33:47.963Z,17.70
2018-06-05T06:36:15.988Z,17.60
2018-06-05T06:38:43.921Z,17.70
2018-06-05T06:41:11.929Z,17.60
2018-06-05T06:43:39.937Z,17.60
2018-06-05T06:48:35.704Z,17.40
2018-06-05T06:51:04.578Z,17.30
2018-06-05T06:56:00.340Z,17.40
2018-06-05T06:58:28.338Z,17.30
2018-06-05T07:00:56.416Z,17.30
2018-06-05T07:03:24.339Z,17.40
2018-06-05T07:05:59.150Z,17.40
2018-06-05T07:08:27.152Z,17.50
2018-06-05T07:10:55.132Z,17.50
2018-06-05T07:13:23.159Z,17.40
2018-06-05T07:15:51.170Z,17.50
2018-06-05T07:18:19.183Z,17.40
2018-06-05T07:20:47.118Z,17.30
2018-06-05T07:23:15.266Z,17.30
2018-06-05T07:25:43.304Z,17.30
2018-06-05T07:28:11.287Z,17.30
2018-06-05T07:30:39.294Z,17.40
2018-06-05T07:33:07.591Z,17.50
2018-06-05T07:35:35.642Z,17.50
2018-06-05T07:38:03.711Z,17.60
2018-06-05T07:40:31.702Z,17.60
2018-06-05T07:42:59.804Z,17.60
2018-06-05T07:45:27.874Z,17.70
2018-06-05T07:47:55.874Z,17.60
2018-06-05T07:50:23.863Z,17.60
2018-06-05T07:52:51.852Z,17.60
2018-06-05T07:55:19.871Z,17.70
2018-06-05T07:57:47.800Z,17.60
2018-06-05T08:00:15.843Z,17.50
2018-06-05T08:02:43.856Z,17.50
2018-06-05T08:05:11.825Z,17.50
2018-06-05T08:07:39.785Z,17.60
2018-06-05T08:10:07.789Z,17.60
2018-06-05T08:12:35.787Z,17.70
2018-06-05T08:15:03.808Z,17.80
2018-06-05T08:17:31.805Z,17.90
2018-06-05T08:19:59.772Z,17.70
2018-06-05T08:25:01.059Z,17.80
2018-06-05T08:27:29.032Z,18.00
2018-06-05T08:29:57.068Z,18.30
2018-06-05T08:32:25.056Z,18.50
2018-06-05T08:34:53.059Z,18.50
2018-06-05T08:37:21.098Z,18.40
2018-06-05T08:42:16.874Z,18.30
2018-06-05T08:44:44.943Z,18.30
2018-06-05T08:47:12.932Z,18.40
2018-06-05T08:49:41.620Z,18.40
2018-06-05T08:52:09.717Z,18.40
2018-06-05T08:54:37.757Z,18.50
2018-06-05T08:57:06.261Z,18.50
2018-06-05T08:59:34.260Z,18.50
2018-06-05T09:02:02.189Z,18.40
2018-06-05T09:04:30.248Z,18.50
2018-06-05T09:06:58.224Z,18.20
2018-06-05T09:09:26.289Z,18.20
2018-06-05T09:11:54.285Z,18.40
2018-06-05T09:14:22.306Z,18.50
2018-06-05T09:16:50.355Z,18.60
2018-06-05T09:19:18.352Z,18.50
2018-06-05T09:21:46.341Z,18.70
2018-06-05T09:24:14.331Z,19.00
2018-06-05T09:26:42.308Z,19.30
2018-06-05T09:29:10.309Z,19.40
2018-06-05T09:31:38.325Z,19.60
2018-06-05T09:34:06.979Z,19.70
2018-06-05T09:36:34.967Z,19.80
2018-06-05T09:39:02.951Z,19.70
2018-06-05T09:41:30.915Z,19.80
2018-06-05T09:43:58.981Z,19.70
2018-06-05T09:46:26.959Z,19.70
2018-06-05T09:48:54.994Z,19.90
2018-06-05T09:51:22.984Z,19.90
2018-06-05T09:53:50.957Z,20.00
2018-06-05T09:56:19.968Z,20.20
2018-06-05T09:58:48.122Z,20.20
2018-06-05T10:01:16.139Z,20.30
2018-06-05T10:03:44.124Z,20.40
2018-06-05T10:06:12.235Z,20.40
2018-06-05T10:08:40.410Z,20.30
2018-06-05T10:11:08.395Z,20.30
2018-06-05T10:13:37.280Z,20.30
2018-06-05T10:16:05.384Z,20.30
2018-06-05T10:18:33.331Z,20.30
2018-06-05T10:21:01.452Z,20.60
2018-06-05T10:23:29.424Z,20.70
2018-06-05T10:25:57.419Z,20.80
2018-06-05T10:28:25.443Z,20.70
2018-06-05T10:30:53.513Z,20.70
2018-06-05T10:33:21.660Z,20.90
2018-06-05T10:35:49.729Z,20.90
2018-06-05T10:38:17.697Z,20.90
2018-06-05T10:40:45.665Z,20.90
2018-06-05T10:43:13.612Z,21.00
2018-06-05T10:45:41.819Z,21.00
2018-06-05T10:48:09.791Z,21.20
2018-06-05T10:50:39.383Z,21.20
2018-06-05T10:53:08.282Z,21.20
2018-06-05T10:55:36.648Z,21.30
2018-06-05T10:58:04.643Z,21.40
2018-06-05T11:00:32.753Z,21.60
2018-06-05T11:03:01.061Z,21.50
2018-06-05T11:05:29.025Z,21.70
2018-06-05T11:07:57.016Z,21.90
2018-06-05T11:10:25.055Z,22.10
2018-06-05T11:12:53.054Z,22.00
2018-06-05T11:15:21.006Z,21.80
2018-06-05T11:17:48.992Z,21.80
2018-06-05T11:20:16.961Z,21.70
2018-06-05T11:22:44.909Z,21.80
2018-06-05T11:25:12.883Z,21.90
2018-06-05T11:27:40.900Z,21.80
2018-06-05T11:30:08.943Z,21.70
2018-06-05T11:32:36.888Z,21.80
2018-06-05T11:35:04.997Z,21.70
2018-06-05T11:37:33.049Z,21.50
2018-06-05T11:40:01.004Z,21.60
2018-06-05T11:42:28.982Z,21.50
2018-06-05T11:44:56.960Z,21.50
2018-06-05T11:47:24.916Z,21.60
2018-06-05T11:49:52.921Z,21.70
2018-06-05T11:52:20.949Z,21.90
2018-06-05T11:54:48.960Z,22.00
2018-06-05T11:57:17.022Z,22.10
2018-06-05T11:59:45.034Z,22.10
2018-06-05T12:02:13.036Z,22.30
2018-06-05T12:04:41.035Z,22.50
2018-06-05T12:07:09.060Z,22.40
2018-06-05T12:09:37.076Z,22.50
2018-06-05T12:12:05.021Z,22.80
2018-06-05T12:14:33.092Z,23.00
2018-06-05T12:17:01.043Z,23.30
2018-06-05T12:19:29.005Z,23.70
2018-06-05T12:24:24.763Z,24.60
2018-06-05T12:26:52.748Z,25.00
2018-06-05T12:29:20.693Z,25.40
2018-06-05T12:31:48.652Z,25.80
2018-06-05T12:34:16.719Z,26.40
2018-06-05T12:36:44.727Z,26.50
2018-06-05T12:39:12.683Z,26.70
2018-06-05T12:41:40.806Z,27.10
2018-06-05T12:44:09.240Z,27.80
2018-06-05T12:46:37.294Z,28.60
2018-06-05T12:49:05.362Z,28.90
2018-06-05T12:51:33.317Z,29.70
2018-06-05T12:54:01.308Z,30.30
2018-06-05T12:56:29.273Z,31.20
2018-06-05T12:58:57.224Z,32.00
2018-06-05T13:01:25.212Z,32.20
2018-06-05T13:03:53.216Z,32.70
2018-06-05T13:06:21.148Z,33.60
2018-06-05T13:08:49.177Z,34.10
2018-06-05T13:11:17.275Z,34.80
2018-06-05T13:13:45.241Z,35.20
2018-06-05T13:16:13.223Z,35.40
2018-06-05T13:18:41.199Z,35.80
2018-06-05T13:21:09.571Z,36.80
2018-06-05T13:23:37.535Z,36.70
2018-06-05T13:26:05.492Z,37.00
2018-06-05T13:28:33.460Z,37.50
2018-06-05T13:31:01.520Z,37.60
2018-06-05T13:33:29.957Z,37.80
2018-06-05T13:35:58.097Z,37.10
2018-06-05T13:38:26.061Z,36.70
2018-06-05T13:40:54.068Z,36.90
2018-06-05T13:43:22.094Z,36.90
2018-06-05T13:45:50.212Z,36.60
2018-06-05T13:48:18.199Z,36.10
2018-06-05T13:50:46.392Z,36.80
2018-06-05T13:53:14.390Z,37.00
2018-06-05T13:55:42.347Z,37.30
2018-06-05T13:58:10.348Z,37.70
2018-06-05T14:00:38.303Z,38.10
2018-06-05T14:05:34.075Z,38.10
2018-06-05T14:08:02.056Z,37.90
2018-06-05T14:10:30.132Z,37.30
2018-06-05T14:12:58.177Z,37.50
2018-06-05T14:15:26.119Z,37.00
2018-06-05T14:17:54.088Z,36.40
2018-06-05T14:20:22.101Z,36.60
2018-06-05T14:22:50.108Z,37.10
2018-06-05T14:25:18.078Z,37.60
2018-06-05T14:27:46.045Z,38.40
2018-06-05T14:30:14.029Z,38.70
2018-06-05T14:32:42.055Z,38.80
2018-06-05T14:35:10.339Z,38.90
2018-06-05T14:37:38.332Z,38.60
2018-06-05T14:40:06.449Z,37.90
2018-06-05T14:42:34.497Z,37.70
2018-06-05T14:45:02.597Z,38.00
2018-06-05T14:47:30.531Z,37.80
2018-06-05T14:49:58.503Z,37.70
2018-06-05T14:52:26.479Z,37.60
2018-06-05T14:54:54.478Z,37.70
2018-06-05T14:57:22.474Z,37.80
2018-06-05T14:59:50.466Z,37.70
2018-06-05T15:02:18.457Z,38.00
2018-06-05T15:04:46.471Z,37.10
2018-06-05T15:07:14.442Z,37.10
2018-06-05T15:09:42.419Z,37.30
2018-06-05T15:12:10.745Z,37.20
2018-06-05T15:14:38.765Z,37.00
2018-06-05T15:17:06.768Z,36.80
2018-06-05T15:19:34.748Z,37.00
2018-06-05T15:22:02.797Z,36.50
2018-06-05T15:24:30.765Z,36.30
2018-06-05T15:26:58.790Z,36.30
2018-06-05T15:29:26.774Z,36.30
2018-06-05T15:31:54.774Z,36.20
2018-06-05T15:34:22.741Z,36.50
2018-06-05T15:36:50.709Z,36.70
2018-06-05T15:39:18.677Z,36.40
2018-06-05T15:41:46.751Z,35.90
2018-06-05T15:44:14.717Z,35.70
2018-06-05T15:46:42.672Z,35.00
2018-06-05T15:49:11.077Z,34.60
2018-06-05T15:51:39.118Z,34.50
2018-06-05T15:54:07.103Z,34.10
2018-06-05T15:56:35.082Z,33.10
2018-06-05T15:59:03.156Z,32.30
2018-06-05T16:01:31.124Z,32.10
2018-06-05T16:03:59.144Z,31.70
2018-06-05T16:06:27.200Z,31.40
2018-06-05T16:08:55.228Z,30.90
2018-06-05T16:11:23.195Z,30.80
2018-06-05T16:13:51.165Z,31.10
2018-06-05T16:16:19.120Z,31.20
2018-06-05T16:18:47.085Z,31.10
2018-06-05T16:21:15.056Z,30.90
2018-06-05T16:23:43.028Z,30.90
2018-06-05T16:26:11.671Z,30.90
2018-06-05T16:28:39.608Z,30.60
2018-06-05T16:31:08.022Z,30.40
2018-06-05T16:33:35.984Z,30.20
2018-06-05T16:36:03.974Z,30.10
2018-06-05T16:38:31.960Z,30.10
2018-06-05T16:40:59.944Z,30.20
2018-06-05T16:43:27.897Z,30.00
2018-06-05T16:45:55.865Z,29.80
2018-06-05T16:48:23.848Z,29.80
2018-06-05T16:50:51.833Z,29.60
2018-06-05T16:53:19.767Z,29.70
2018-06-05T16:55:47.758Z,29.30
2018-06-05T16:58:15.748Z,28.70
2018-06-05T17:00:43.720Z,28.10
2018-06-05T17:03:12.058Z,27.60
2018-06-05T17:05:40.095Z,27.50
2018-06-05T17:08:08.072Z,27.60
2018-06-05T17:10:36.028Z,27.70
2018-06-05T17:15:31.931Z,28.00
2018-06-05T17:17:59.969Z,28.00
2018-06-05T17:20:27.925Z,27.80
2018-06-05T17:22:55.908Z,27.60
2018-06-05T17:25:23.928Z,27.60
2018-06-05T17:27:51.956Z,27.70
2018-06-05T17:30:19.913Z,27.90
2018-06-05T17:32:47.960Z,27.90
2018-06-05T17:35:16.072Z,27.70
2018-06-05T17:37:44.012Z,27.90
2018-06-05T17:40:12.671Z,27.70
2018-06-05T17:42:40.629Z,27.70
2018-06-05T17:45:08.574Z,27.80
2018-06-05T17:47:36.543Z,27.80
2018-06-05T17:50:04.505Z,27.70
2018-06-05T17:52:32.482Z,27.70
2018-06-05T17:55:00.557Z,27.40
2018-06-05T17:57:28.523Z,27.40
2018-06-05T17:59:56.604Z,27.60
2018-06-05T18:02:24.716Z,27.80
2018-06-05T18:04:52.742Z,27.80
2018-06-05T18:09:48.594Z,27.90
2018-06-05T18:12:16.580Z,27.90
2018-06-05T18:14:44.525Z,27.90
2018-06-05T18:17:12.981Z,27.80
2018-06-05T18:19:40.963Z,27.70
2018-06-05T18:22:08.991Z,27.70
2018-06-05T18:24:36.972Z,27.30
2018-06-05T18:27:05.011Z,27.10
2018-06-05T18:29:33.057Z,26.70
2018-06-05T18:32:00.997Z,26.50
2018-06-05T18:34:29.016Z,26.30
2018-06-05T18:36:56.974Z,26.10
2018-06-05T18:39:24.964Z,26.10
2018-06-05T18:41:52.989Z,26.20
2018-06-05T18:44:20.976Z,26.10
2018-06-05T18:46:48.936Z,26.10
2018-06-05T18:49:16.912Z,26.00
2018-06-05T18:51:44.855Z,25.80
2018-06-05T18:54:13.308Z,25.70
2018-06-05T18:56:41.306Z,25.50
2018-06-05T18:59:09.256Z,25.30
2018-06-05T19:04:05.181Z,25.10
2018-06-05T19:06:33.109Z,25.00
2018-06-05T19:09:01.118Z,24.80
2018-06-05T19:11:29.098Z,24.70
2018-06-05T19:13:57.048Z,24.60
2018-06-05T19:16:25.045Z,24.60
2018-06-05T19:18:53.060Z,24.50
2018-06-05T19:21:21.103Z,24.30
2018-06-05T19:23:49.083Z,24.20
2018-06-05T19:26:17.027Z,24.10
2018-06-05T19:28:44.980Z,24.00
2018-06-05T19:31:13.879Z,24.00
2018-06-05T19:33:41.834Z,23.90
2018-06-05T19:36:09.830Z,23.80
2018-06-05T19:38:37.762Z,23.80
2018-06-05T19:41:05.715Z,23.70
2018-06-05T19:43:33.720Z,23.60
2018-06-05T19:46:01.724Z,23.50
2018-06-05T19:48:29.716Z,23.40
2018-06-05T19:50:57.726Z,23.30
2018-06-05T19:53:25.712Z,23.30
2018-06-05T19:55:53.878Z,23.10
2018-06-05T19:58:21.761Z,23.10
2018-06-05T20:00:49.868Z,23.00
2018-06-05T20:03:17.908Z,23.00
2018-06-05T20:05:45.844Z,22.90
2018-06-05T20:08:14.243Z,22.90
2018-06-05T20:10:42.263Z,22.80
2018-06-05T20:13:10.248Z,22.70
2018-06-05T20:15:38.210Z,22.60
2018-06-05T20:18:06.205Z,22.60
2018-06-05T20:20:34.203Z,22.50
2018-06-05T20:23:02.155Z,22.50
2018-06-05T20:25:30.081Z,22.50
2018-06-05T20:27:58.049Z,22.40
2018-06-05T20:30:26.042Z,22.40
2018-06-05T20:32:54.036Z,22.30
2018-06-05T20:35:22.208Z,22.20
2018-06-05T20:37:50.177Z,22.20
2018-06-05T20:40:18.246Z,22.10
2018-06-05T20:42:46.445Z,22.00
2018-06-05T20:45:14.704Z,21.90
2018-06-05T20:47:42.721Z,21.90
2018-06-05T20:50:10.688Z,21.80
2018-06-05T20:52:38.651Z,21.80
2018-06-05T20:55:06.624Z,21.70
2018-06-05T20:57:34.644Z,21.70
2018-06-05T21:00:02.841Z,21.60
2018-06-05T21:02:30.836Z,21.60
2018-06-05T21:04:58.843Z,21.60
2018-06-05T21:07:26.846Z,21.60
2018-06-05T21:09:54.798Z,21.60
2018-06-05T21:12:22.810Z,21.60
2018-06-05T21:14:50.815Z,21.60
2018-06-05T21:17:18.785Z,21.60
2018-06-05T21:19:46.753Z,21.60
2018-06-05T21:22:15.095Z,21.60
2018-06-05T21:24:43.135Z,21.60
2018-06-05T21:27:11.109Z,21.60
2018-06-05T21:29:39.116Z,21.60
2018-06-05T21:32:07.061Z,21.60
2018-06-05T21:34:35.175Z,21.50
2018-06-05T21:37:03.159Z,21.50
2018-06-05T21:39:31.067Z,21.50
2018-06-05T21:41:59.241Z,21.40
2018-06-05T21:44:27.197Z,21.40
2018-06-05T21:46:55.156Z,21.30
2018-06-05T21:49:23.160Z,21.30
2018-06-05T21:51:51.184Z,21.20
2018-06-05T21:54:19.140Z,21.20
2018-06-05T21:56:47.198Z,21.20
2018-06-05T21:59:15.597Z,21.00
2018-06-05T22:01:43.570Z,20.80
2018-06-05T22:04:11.509Z,20.90
2018-06-05T22:06:39.495Z,20.80
2018-06-05T22:09:08.655Z,20.80
2018-06-05T22:11:36.591Z,20.60
2018-06-05T22:14:04.541Z,20.60
2018-06-05T22:16:32.608Z,20.60
2018-06-05T22:19:00.586Z,20.60
2018-06-05T22:21:28.546Z,20.70
2018-06-05T22:23:56.520Z,20.80
2018-06-05T22:26:24.520Z,20.80
2018-06-05T22:28:52.596Z,20.80
2018-06-05T22:31:20.581Z,20.70
2018-06-05T22:33:48.571Z,20.70
2018-06-05T22:36:16.573Z,20.80
2018-06-05T22:38:44.539Z,20.70
2018-06-05T22:41:12.588Z,20.60
2018-06-05T22:43:40.559Z,20.50
2018-06-05T22:46:08.525Z,20.40
2018-06-05T22:48:36.564Z,20.30
2018-06-05T22:51:04.532Z,20.30
2018-06-05T22:53:32.605Z,20.20
2018-06-05T22:56:00.625Z,20.20
2018-06-05T22:58:28.612Z,20.20
2018-06-05T23:00:56.564Z,20.20
2018-06-05T23:03:24.604Z,20.10
2018-06-05T23:05:52.685Z,20.10
2018-06-05T23:08:20.683Z,20.10
2018-06-05T23:10:48.657Z,20.00
2018-06-05T23:13:16.656Z,19.90
2018-06-05T23:15:44.588Z,19.90
2018-06-05T23:18:12.580Z,19.80
2018-06-05T23:20:40.580Z,19.80
2018-06-05T23:23:08.493Z,19.80
2018-06-05T23:25:36.573Z,19.70
2018-06-05T23:28:04.541Z,19.70
2018-06-05T23:30:32.503Z,19.60
2018-06-05T23:33:00.474Z,19.60
2018-06-05T23:35:28.494Z,19.50
2018-06-05T23:37:57.225Z,19.50
2018-06-05T23:40:25.200Z,19.50
2018-06-05T23:42:53.197Z,19.40
2018-06-05T23:45:21.211Z,19.40
2018-06-05T23:47:49.105Z,19.40
2018-06-05T23:50:17.173Z,19.40
2018-06-05T23:52:45.124Z,19.40
2018-06-05T23:55:13.120Z,19.50
2018-06-05T23:57:41.118Z,19.50
